createdAt,value
2018-03-23T00:00:33.536Z,8.60
2018-03-23T00:01:39.049Z,8.60
2018-03-23T00:02:44.564Z,8.57
2018-03-23T00:03:50.070Z,8.53
2018-03-23T00:04:55.589Z,8.55
2018-03-23T00:06:01.090Z,8.55
2018-03-23T00:07:06.602Z,8.55
2018-03-23T00:08:12.119Z,8.48
2018-03-23T00:09:17.621Z,8.48
2018-03-23T00:10:23.132Z,8.50
2018-03-23T00:11:28.646Z,8.55
2018-03-23T00:12:34.156Z,8.50
2018-03-23T00:13:39.662Z,8.53
2018-03-23T00:14:45.180Z,8.53
2018-03-23T00:15:50.682Z,8.54
2018-03-23T00:16:56.194Z,8.45
2018-03-23T00:18:01.709Z,8.53
2018-03-23T00:19:07.237Z,8.51
2018-03-23T00:20:12.734Z,8.55
2018-03-23T00:21:18.284Z,8.51
2018-03-23T00:22:23.741Z,8.51
2018-03-23T00:23:29.252Z,8.50
2018-03-23T00:24:34.784Z,8.50
2018-03-23T00:25:40.275Z,8.54
2018-03-23T00:26:45.916Z,8.50
2018-03-23T00:27:51.292Z,8.53
2018-03-23T00:28:56.883Z,8.48
2018-03-23T00:30:02.312Z,8.50
2018-03-23T00:31:07.833Z,8.57
2018-03-23T00:32:13.336Z,8.53
2018-03-23T00:33:18.853Z,8.47
2018-03-23T00:34:24.370Z,8.42
2018-03-23T00:35:29.884Z,8.45
2018-03-23T00:36:35.376Z,8.45
2018-03-23T00:37:40.885Z,8.54
2018-03-23T00:38:46.403Z,8.44
2018-03-23T00:39:51.913Z,8.55
2018-03-23T00:40:57.422Z,8.50
2018-03-23T00:42:02.932Z,8.53
2018-03-23T00:43:08.438Z,8.42
2018-03-23T00:44:13.954Z,8.47
2018-03-23T00:45:19.453Z,8.48
2018-03-23T00:46:24.968Z,8.45
2018-03-23T00:47:30.479Z,8.42
2018-03-23T00:48:36.005Z,8.45
2018-03-23T00:49:41.513Z,8.40
2018-03-23T00:50:47.002Z,8.40
2018-03-23T00:51:52.518Z,8.39
2018-03-23T00:52:58.026Z,8.42
2018-03-23T00:54:03.534Z,8.54
2018-03-23T00:55:09.048Z,8.42
2018-03-23T00:56:14.570Z,8.39
2018-03-23T00:57:20.085Z,8.42
2018-03-23T00:58:25.583Z,8.37
2018-03-23T00:59:31.091Z,8.42
2018-03-23T01:00:36.596Z,8.44
2018-03-23T01:01:42.126Z,8.47
2018-03-23T01:02:47.628Z,8.45
2018-03-23T01:03:53.125Z,8.40
2018-03-23T01:04:58.651Z,8.42
2018-03-23T01:06:04.152Z,8.36
2018-03-23T01:07:09.679Z,8.40
2018-03-23T01:08:15.172Z,8.39
2018-03-23T01:09:20.675Z,8.40
2018-03-23T01:10:26.193Z,8.42
2018-03-23T01:11:31.696Z,8.37
2018-03-23T01:12:37.214Z,8.39
2018-03-23T01:13:42.717Z,8.39
2018-03-23T01:14:48.225Z,8.30
2018-03-23T01:15:53.750Z,8.40
2018-03-23T01:16:59.259Z,8.42
2018-03-23T01:18:04.759Z,8.32
2018-03-23T01:19:10.275Z,8.39
2018-03-23T01:20:15.781Z,8.33
2018-03-23T01:21:21.299Z,8.28
2018-03-23T01:22:26.803Z,8.30
2018-03-23T01:23:32.321Z,8.30
2018-03-23T01:24:37.826Z,8.30
2018-03-23T01:25:43.328Z,8.30
2018-03-23T01:26:48.847Z,8.30
2018-03-23T01:27:54.353Z,8.30
2018-03-23T01:28:59.877Z,8.29
2018-03-23T01:30:05.380Z,8.26
2018-03-23T01:31:10.881Z,8.29
2018-03-23T01:32:16.391Z,8.25
2018-03-23T01:33:21.904Z,8.30
2018-03-23T01:34:27.422Z,8.28
2018-03-23T01:35:32.926Z,8.28
2018-03-23T01:36:38.436Z,8.25
2018-03-23T01:37:43.957Z,8.28
2018-03-23T01:38:49.462Z,8.29
2018-03-23T01:39:54.961Z,8.26
2018-03-23T01:41:00.473Z,8.28
2018-03-23T01:42:06.106Z,8.28
2018-03-23T01:43:11.492Z,8.28
2018-03-23T01:44:17.011Z,8.22
2018-03-23T01:45:22.634Z,8.14
2018-03-23T01:46:28.019Z,8.26
2018-03-23T01:47:33.534Z,8.21
2018-03-23T01:48:39.052Z,8.14
2018-03-23T01:49:44.562Z,8.20
2018-03-23T01:50:50.119Z,8.20
2018-03-23T01:51:55.576Z,8.17
2018-03-23T01:53:01.092Z,8.17
2018-03-23T01:54:06.604Z,8.15
2018-03-23T01:55:12.106Z,8.18
2018-03-23T01:56:17.610Z,8.15
2018-03-23T01:57:23.123Z,8.18
2018-03-23T01:58:28.630Z,8.18
2018-03-23T01:59:34.158Z,8.25
2018-03-23T02:00:39.711Z,8.12
2018-03-23T02:01:45.166Z,8.18
2018-03-23T02:02:50.683Z,8.14
2018-03-23T02:03:56.186Z,8.22
2018-03-23T02:05:01.691Z,8.25
2018-03-23T02:06:07.212Z,8.18
2018-03-23T02:07:12.712Z,8.18
2018-03-23T02:08:18.230Z,8.17
2018-03-23T02:09:23.740Z,8.15
2018-03-23T02:10:29.246Z,8.12
2018-03-23T02:11:34.758Z,8.11
2018-03-23T02:12:40.262Z,8.12
2018-03-23T02:13:45.780Z,8.15
2018-03-23T02:14:51.322Z,8.17
2018-03-23T02:15:56.795Z,8.17
2018-03-23T02:17:02.299Z,8.18
2018-03-23T02:18:07.818Z,8.18
2018-03-23T02:19:13.326Z,8.11
2018-03-23T02:20:18.830Z,8.03
2018-03-23T02:21:24.347Z,8.14
2018-03-23T02:22:29.857Z,8.08
2018-03-23T02:23:35.372Z,8.12
2018-03-23T02:24:40.877Z,8.10
2018-03-23T02:25:46.381Z,8.00
2018-03-23T02:26:51.893Z,8.04
2018-03-23T02:27:57.422Z,8.07
2018-03-23T02:29:02.913Z,8.10
2018-03-23T02:30:08.429Z,8.07
2018-03-23T02:31:13.940Z,8.11
2018-03-23T02:32:19.444Z,8.10
2018-03-23T02:33:24.961Z,8.00
2018-03-23T02:34:30.463Z,8.04
2018-03-23T02:35:35.967Z,8.08
2018-03-23T02:36:41.478Z,8.11
2018-03-23T02:37:46.992Z,8.10
2018-03-23T02:38:52.503Z,8.17
2018-03-23T02:39:58.028Z,8.11
2018-03-23T02:41:03.515Z,8.08
2018-03-23T02:42:09.038Z,8.17
2018-03-23T02:43:14.548Z,8.15
2018-03-23T02:44:20.046Z,8.15
2018-03-23T02:45:25.555Z,8.10
2018-03-23T02:46:31.081Z,8.18
2018-03-23T02:47:36.619Z,8.17
2018-03-23T02:48:42.221Z,8.14
2018-03-23T02:49:47.613Z,8.18
2018-03-23T02:50:53.105Z,8.11
2018-03-23T02:51:58.616Z,8.17
2018-03-23T02:53:04.130Z,8.17
2018-03-23T02:54:09.641Z,8.14
2018-03-23T02:55:15.149Z,8.17
2018-03-23T02:56:20.657Z,8.08
2018-03-23T02:57:26.172Z,8.17
2018-03-23T02:58:31.678Z,8.03
2018-03-23T02:59:37.189Z,8.10
2018-03-23T03:00:42.694Z,8.07
2018-03-23T03:01:48.205Z,8.08
2018-03-23T03:02:53.727Z,8.11
2018-03-23T03:03:59.226Z,8.11
2018-03-23T03:05:04.741Z,8.08
2018-03-23T03:06:10.248Z,8.11
2018-03-23T03:07:15.757Z,8.07
2018-03-23T03:08:21.270Z,8.11
2018-03-23T03:09:26.773Z,8.07
2018-03-23T03:10:32.288Z,8.14
2018-03-23T03:11:37.882Z,8.11
2018-03-23T03:12:43.304Z,8.20
2018-03-23T03:13:48.822Z,8.15
2018-03-23T03:14:54.336Z,8.15
2018-03-23T03:15:59.841Z,8.22
2018-03-23T03:17:05.346Z,8.32
2018-03-23T03:18:10.855Z,8.25
2018-03-23T03:19:16.361Z,8.26
2018-03-23T03:20:21.871Z,8.30
2018-03-23T03:21:27.383Z,8.25
2018-03-23T03:22:32.895Z,8.33
2018-03-23T03:23:38.402Z,8.25
2018-03-23T03:24:43.915Z,8.18
2018-03-23T03:25:49.421Z,8.18
2018-03-23T03:26:54.937Z,8.28
2018-03-23T03:28:00.444Z,8.26
2018-03-23T03:29:05.956Z,8.18
2018-03-23T03:30:11.461Z,8.17
2018-03-23T03:31:16.974Z,8.14
2018-03-23T03:32:22.481Z,8.26
2018-03-23T03:33:27.994Z,8.22
2018-03-23T03:34:33.501Z,8.28
2018-03-23T03:35:39.014Z,8.28
2018-03-23T03:36:44.526Z,8.28
2018-03-23T03:37:50.034Z,8.32
2018-03-23T03:38:55.547Z,8.30
2018-03-23T03:40:01.069Z,8.33
2018-03-23T03:41:06.559Z,8.30
2018-03-23T03:42:12.071Z,8.44
2018-03-23T03:43:17.580Z,8.42
2018-03-23T03:44:23.098Z,8.42
2018-03-23T03:45:28.608Z,8.39
2018-03-23T03:46:34.111Z,8.40
2018-03-23T03:47:39.634Z,8.42
2018-03-23T03:48:45.140Z,8.42
2018-03-23T03:49:50.641Z,8.42
2018-03-23T03:50:56.181Z,8.37
2018-03-23T03:52:01.708Z,8.36
2018-03-23T03:53:07.173Z,8.33
2018-03-23T03:54:12.682Z,8.28
2018-03-23T03:55:18.200Z,8.29
2018-03-23T03:56:23.699Z,8.36
2018-03-23T03:57:29.211Z,8.26
2018-03-23T03:58:34.732Z,8.32
2018-03-23T03:59:40.229Z,8.26
2018-03-23T04:00:45.742Z,8.28
2018-03-23T04:01:51.254Z,8.26
2018-03-23T04:02:56.761Z,8.26
2018-03-23T04:04:02.270Z,8.30
2018-03-23T04:05:07.806Z,8.30
2018-03-23T04:06:13.296Z,8.26
2018-03-23T04:07:18.796Z,8.26
2018-03-23T04:08:24.316Z,8.30
2018-03-23T04:09:29.822Z,8.44
2018-03-23T04:10:35.331Z,8.60
2018-03-23T04:11:40.839Z,8.65
2018-03-23T04:12:46.349Z,8.65
2018-03-23T04:13:51.864Z,8.50
2018-03-23T04:14:57.376Z,8.60
2018-03-23T04:16:02.886Z,8.63
2018-03-23T04:17:08.394Z,8.68
2018-03-23T04:18:13.904Z,8.69
2018-03-23T04:19:19.411Z,8.72
2018-03-23T04:20:24.928Z,8.76
2018-03-23T04:21:30.429Z,8.83
2018-03-23T04:22:35.936Z,8.86
2018-03-23T04:23:41.464Z,8.86
2018-03-23T04:24:46.966Z,8.83
2018-03-23T04:25:52.469Z,8.83
2018-03-23T04:26:57.978Z,8.84
2018-03-23T04:28:03.494Z,8.83
2018-03-23T04:29:09.006Z,8.84
2018-03-23T04:30:14.515Z,8.88
2018-03-23T04:31:20.024Z,8.96
2018-03-23T04:32:25.531Z,8.93
2018-03-23T04:33:31.048Z,8.91
2018-03-23T04:34:36.633Z,8.90
2018-03-23T04:35:42.065Z,8.91
2018-03-23T04:36:47.573Z,8.87
2018-03-23T04:37:53.144Z,8.84
2018-03-23T04:38:58.588Z,8.87
2018-03-23T04:40:04.099Z,8.86
2018-03-23T04:41:09.615Z,8.86
2018-03-23T04:42:15.121Z,8.79
2018-03-23T04:43:20.633Z,8.75
2018-03-23T04:44:26.140Z,8.84
2018-03-23T04:45:31.655Z,8.84
2018-03-23T04:46:37.164Z,8.78
2018-03-23T04:47:42.674Z,8.84
2018-03-23T04:48:48.184Z,8.99
2018-03-23T04:49:53.697Z,8.97
2018-03-23T04:50:59.232Z,8.96
2018-03-23T04:52:04.716Z,9.01
2018-03-23T04:53:10.228Z,8.94
2018-03-23T04:54:15.748Z,9.06
2018-03-23T04:55:21.242Z,9.02
2018-03-23T04:56:26.757Z,9.01
2018-03-23T04:57:32.273Z,9.01
2018-03-23T04:58:37.772Z,8.97
2018-03-23T04:59:43.280Z,8.93
2018-03-23T05:00:48.796Z,8.99
2018-03-23T05:01:54.306Z,8.96
2018-03-23T05:02:59.827Z,8.84
2018-03-23T05:04:05.323Z,8.87
2018-03-23T05:05:10.840Z,8.84
2018-03-23T05:06:16.350Z,8.75
2018-03-23T05:07:21.880Z,8.86
2018-03-23T05:08:27.491Z,8.60
2018-03-23T05:09:32.877Z,8.72
2018-03-23T05:10:38.389Z,8.69
2018-03-23T05:11:43.897Z,8.66
2018-03-23T05:12:49.448Z,8.69
2018-03-23T05:13:54.916Z,8.66
2018-03-23T05:15:00.427Z,8.66
2018-03-23T05:16:05.947Z,8.66
2018-03-23T05:17:11.446Z,8.53
2018-03-23T05:18:16.965Z,8.63
2018-03-23T05:19:22.471Z,8.60
2018-03-23T05:20:27.975Z,8.55
2018-03-23T05:21:33.486Z,8.58
2018-03-23T05:22:38.998Z,8.57
2018-03-23T05:23:44.506Z,8.60
2018-03-23T05:24:50.053Z,8.50
2018-03-23T05:25:55.525Z,8.55
2018-03-23T05:27:01.035Z,8.50
2018-03-23T05:28:06.546Z,8.53
2018-03-23T05:29:12.058Z,8.51
2018-03-23T05:30:17.566Z,8.47
2018-03-23T05:31:23.075Z,8.51
2018-03-23T05:32:28.602Z,8.55
2018-03-23T05:33:34.104Z,8.44
2018-03-23T05:34:39.612Z,8.50
2018-03-23T05:35:45.116Z,8.44
2018-03-23T05:36:50.626Z,8.37
2018-03-23T05:37:56.147Z,8.53
2018-03-23T05:39:01.651Z,8.50
2018-03-23T05:40:07.158Z,8.44
2018-03-23T05:41:12.682Z,8.44
2018-03-23T05:42:18.175Z,8.42
2018-03-23T05:43:23.700Z,8.44
2018-03-23T05:44:29.197Z,8.47
2018-03-23T05:45:34.714Z,8.40
2018-03-23T05:46:40.215Z,8.39
2018-03-23T05:47:45.738Z,8.42
2018-03-23T05:48:51.238Z,8.39
2018-03-23T05:49:56.756Z,8.42
2018-03-23T05:51:02.373Z,8.42
2018-03-23T05:52:07.768Z,8.42
2018-03-23T05:53:13.290Z,8.44
2018-03-23T05:54:18.794Z,8.44
2018-03-23T05:55:24.305Z,8.45
2018-03-23T05:56:29.816Z,8.42
2018-03-23T05:57:35.319Z,8.40
2018-03-23T05:58:40.834Z,8.42
2018-03-23T05:59:46.345Z,8.45
2018-03-23T06:00:51.847Z,8.54
2018-03-23T06:01:57.355Z,8.42
2018-03-23T06:03:02.877Z,8.45
2018-03-23T06:04:08.375Z,8.42
2018-03-23T06:05:13.892Z,8.47
2018-03-23T06:06:19.395Z,8.44
2018-03-23T06:07:24.909Z,8.39
2018-03-23T06:08:30.415Z,8.53
2018-03-23T06:09:35.925Z,8.65
2018-03-23T06:10:41.446Z,8.76
2018-03-23T06:11:46.948Z,8.84
2018-03-23T06:12:52.459Z,8.93
2018-03-23T06:13:57.970Z,8.88
2018-03-23T06:15:03.482Z,8.87
2018-03-23T06:16:08.991Z,8.90
2018-03-23T06:17:14.496Z,8.99
2018-03-23T06:18:20.014Z,8.90
2018-03-23T06:19:25.567Z,8.84
2018-03-23T06:20:31.036Z,8.81
2018-03-23T06:21:36.543Z,8.84
2018-03-23T06:22:42.069Z,8.83
2018-03-23T06:23:47.558Z,8.78
2018-03-23T06:24:53.070Z,8.78
2018-03-23T06:25:58.720Z,8.76
2018-03-23T06:27:04.088Z,8.76
2018-03-23T06:28:09.599Z,8.73
2018-03-23T06:29:15.113Z,8.69
2018-03-23T06:30:20.626Z,8.69
2018-03-23T06:31:26.156Z,8.73
2018-03-23T06:32:31.641Z,8.68
2018-03-23T06:33:37.153Z,8.65
2018-03-23T06:34:42.674Z,8.65
2018-03-23T06:35:48.171Z,8.60
2018-03-23T06:36:53.687Z,8.58
2018-03-23T06:37:59.198Z,8.53
2018-03-23T06:39:04.699Z,8.57
2018-03-23T06:40:10.211Z,8.53
2018-03-23T06:41:15.732Z,8.47
2018-03-23T06:42:21.228Z,8.42
2018-03-23T06:43:26.740Z,8.39
2018-03-23T06:44:32.252Z,8.45
2018-03-23T06:45:37.765Z,8.47
2018-03-23T06:46:43.268Z,8.44
2018-03-23T06:47:48.786Z,8.40
2018-03-23T06:48:54.294Z,8.35
2018-03-23T06:49:59.797Z,8.36
2018-03-23T06:51:05.309Z,8.28
2018-03-23T06:52:10.825Z,8.29
2018-03-23T06:53:16.329Z,8.29
2018-03-23T06:54:21.840Z,8.32
2018-03-23T06:55:27.352Z,8.35
2018-03-23T06:56:32.856Z,8.29
2018-03-23T06:57:38.374Z,8.25
2018-03-23T06:58:43.881Z,8.26
2018-03-23T06:59:49.392Z,8.14
2018-03-23T07:00:54.904Z,8.20
2018-03-23T07:02:00.418Z,8.26
2018-03-23T07:03:05.916Z,8.25
2018-03-23T07:04:11.432Z,8.18
2018-03-23T07:05:16.945Z,8.22
2018-03-23T07:06:22.450Z,8.14
2018-03-23T07:07:27.965Z,8.22
2018-03-23T07:08:33.466Z,8.21
2018-03-23T07:09:38.978Z,8.15
2018-03-23T07:10:44.490Z,8.17
2018-03-23T07:11:50.002Z,8.14
2018-03-23T07:12:55.515Z,8.20
2018-03-23T07:14:01.023Z,8.25
2018-03-23T07:15:06.541Z,8.18
2018-03-23T07:16:12.044Z,8.20
2018-03-23T07:17:17.546Z,8.22
2018-03-23T07:18:23.054Z,8.25
2018-03-23T07:19:28.568Z,8.12
2018-03-23T07:20:34.079Z,8.18
2018-03-23T07:21:39.591Z,8.25
2018-03-23T07:22:45.097Z,8.21
2018-03-23T07:23:50.602Z,8.21
2018-03-23T07:24:56.114Z,8.20
2018-03-23T07:26:01.626Z,8.22
2018-03-23T07:27:07.139Z,8.20
2018-03-23T07:28:12.648Z,8.15
2018-03-23T07:29:18.175Z,8.22
2018-03-23T07:30:23.661Z,8.20
2018-03-23T07:31:29.176Z,8.14
2018-03-23T07:32:34.687Z,8.17
2018-03-23T07:33:40.196Z,8.14
2018-03-23T07:34:45.708Z,8.12
2018-03-23T07:35:51.216Z,8.15
2018-03-23T07:36:56.722Z,8.20
2018-03-23T07:38:02.229Z,8.22
2018-03-23T07:39:07.738Z,8.17
2018-03-23T07:40:13.251Z,8.22
2018-03-23T07:41:18.762Z,8.10
2018-03-23T07:42:24.276Z,8.20
2018-03-23T07:43:29.778Z,8.18
2018-03-23T07:44:35.291Z,8.17
2018-03-23T07:45:40.805Z,8.20
2018-03-23T07:46:46.314Z,8.14
2018-03-23T07:47:51.825Z,8.21
2018-03-23T07:48:57.326Z,8.21
2018-03-23T07:50:02.926Z,8.17
2018-03-23T07:51:08.355Z,8.14
2018-03-23T07:52:13.864Z,8.20
2018-03-23T07:53:19.452Z,8.25
2018-03-23T07:54:24.893Z,8.17
2018-03-23T07:55:30.385Z,8.29
2018-03-23T07:56:35.899Z,8.28
2018-03-23T07:57:41.408Z,8.30
2018-03-23T07:58:46.921Z,8.25
2018-03-23T07:59:52.446Z,8.29
2018-03-23T08:00:57.936Z,8.26
2018-03-23T08:02:03.449Z,8.32
2018-03-23T08:03:08.956Z,8.28
2018-03-23T08:04:14.468Z,8.42
2018-03-23T08:05:19.977Z,8.40
2018-03-23T08:06:25.486Z,8.45
2018-03-23T08:07:30.992Z,8.40
2018-03-23T08:08:36.506Z,8.44
2018-03-23T08:09:42.013Z,8.54
2018-03-23T08:10:47.526Z,8.47
2018-03-23T08:11:53.032Z,8.50
2018-03-23T08:12:58.548Z,8.57
2018-03-23T08:14:04.057Z,8.62
2018-03-23T08:15:09.566Z,8.48
2018-03-23T08:16:15.076Z,8.55
2018-03-23T08:17:20.585Z,8.58
2018-03-23T08:18:26.095Z,8.62
2018-03-23T08:19:31.610Z,8.57
2018-03-23T08:20:37.110Z,8.53
2018-03-23T08:21:42.620Z,8.63
2018-03-23T08:22:48.133Z,8.57
2018-03-23T08:23:53.642Z,8.62
2018-03-23T08:24:59.149Z,8.68
2018-03-23T08:26:04.666Z,8.66
2018-03-23T08:27:10.172Z,8.66
2018-03-23T08:28:15.685Z,8.73
2018-03-23T08:29:21.190Z,8.76
2018-03-23T08:30:26.714Z,8.87
2018-03-23T08:31:32.211Z,8.90
2018-03-23T08:32:37.719Z,8.81
2018-03-23T08:33:43.240Z,8.91
2018-03-23T08:34:48.739Z,8.94
2018-03-23T08:35:54.262Z,8.91
2018-03-23T08:36:59.761Z,8.91
2018-03-23T08:38:05.296Z,8.90
2018-03-23T08:39:10.784Z,8.96
2018-03-23T08:40:16.292Z,9.04
2018-03-23T08:41:21.803Z,9.05
2018-03-23T08:42:27.317Z,9.10
2018-03-23T08:43:32.823Z,9.02
2018-03-23T08:44:38.383Z,9.13
2018-03-23T08:45:43.847Z,9.09
2018-03-23T08:46:49.358Z,9.15
2018-03-23T08:47:54.865Z,9.15
2018-03-23T08:49:00.387Z,9.10
2018-03-23T08:50:05.885Z,9.13
2018-03-23T08:51:11.404Z,9.04
2018-03-23T08:52:16.903Z,9.05
2018-03-23T08:53:22.418Z,8.99
2018-03-23T08:54:27.924Z,9.09
2018-03-23T08:55:33.442Z,9.10
2018-03-23T08:56:38.961Z,9.06
2018-03-23T08:57:44.465Z,9.15
2018-03-23T08:58:49.966Z,9.15
2018-03-23T08:59:55.473Z,9.24
2018-03-23T09:01:00.987Z,9.15
2018-03-23T09:02:06.537Z,9.20
2018-03-23T09:03:12.005Z,9.21
2018-03-23T09:04:17.517Z,9.21
2018-03-23T09:05:23.025Z,9.10
2018-03-23T09:06:28.535Z,9.15
2018-03-23T09:07:34.046Z,9.12
2018-03-23T09:08:39.565Z,9.16
2018-03-23T09:09:45.069Z,9.15
2018-03-23T09:10:50.597Z,9.23
2018-03-23T09:11:56.089Z,9.23
2018-03-23T09:13:01.597Z,9.24
2018-03-23T09:14:07.112Z,9.28
2018-03-23T09:15:12.616Z,9.30
2018-03-23T09:16:18.137Z,9.30
2018-03-23T09:17:23.644Z,9.35
2018-03-23T09:18:29.155Z,9.39
2018-03-23T09:19:34.740Z,9.40
2018-03-23T09:20:40.172Z,9.38
2018-03-23T09:21:45.685Z,9.56
2018-03-23T09:22:51.197Z,9.56
2018-03-23T09:23:56.700Z,9.52
2018-03-23T09:25:02.216Z,9.53
2018-03-23T09:26:07.724Z,9.66
2018-03-23T09:27:13.230Z,9.66
2018-03-23T09:28:18.741Z,9.70
2018-03-23T09:29:24.252Z,9.64
2018-03-23T09:30:29.768Z,9.68
2018-03-23T09:31:35.275Z,9.63
2018-03-23T09:32:40.798Z,9.53
2018-03-23T09:33:46.299Z,9.67
2018-03-23T09:34:51.806Z,9.58
2018-03-23T09:35:57.319Z,9.68
2018-03-23T09:37:02.826Z,9.61
2018-03-23T09:38:08.337Z,9.66
2018-03-23T09:39:13.857Z,9.75
2018-03-23T09:40:19.366Z,9.68
2018-03-23T09:41:24.866Z,9.75
2018-03-23T09:42:30.385Z,9.82
2018-03-23T09:43:35.897Z,9.81
2018-03-23T09:44:41.410Z,9.88
2018-03-23T09:45:46.917Z,9.93
2018-03-23T09:46:52.429Z,9.91
2018-03-23T09:47:57.929Z,9.86
2018-03-23T09:49:03.442Z,9.79
2018-03-23T09:50:08.955Z,9.81
2018-03-23T09:51:14.466Z,9.81
2018-03-23T09:52:19.986Z,9.67
2018-03-23T09:53:25.507Z,9.63
2018-03-23T09:54:31.074Z,9.56
2018-03-23T09:55:36.507Z,9.60
2018-03-23T09:56:42.031Z,9.64
2018-03-23T09:57:47.525Z,9.52
2018-03-23T09:58:53.036Z,9.53
2018-03-23T09:59:58.550Z,9.60
2018-03-23T10:01:04.058Z,9.68
2018-03-23T10:02:09.582Z,9.71
2018-03-23T10:03:15.087Z,9.78
2018-03-23T10:04:20.590Z,9.78
2018-03-23T10:05:26.120Z,9.64
2018-03-23T10:06:31.622Z,9.64
2018-03-23T10:07:37.122Z,9.70
2018-03-23T10:08:42.632Z,9.67
2018-03-23T10:09:48.144Z,9.56
2018-03-23T10:10:53.660Z,9.56
2018-03-23T10:11:59.166Z,9.56
2018-03-23T10:13:04.676Z,9.56
2018-03-23T10:14:10.196Z,9.53
2018-03-23T10:15:15.708Z,9.61
2018-03-23T10:16:21.209Z,9.57
2018-03-23T10:17:26.723Z,9.66
2018-03-23T10:18:32.244Z,9.68
2018-03-23T10:19:37.742Z,9.71
2018-03-23T10:20:43.252Z,9.78
2018-03-23T10:21:48.765Z,9.81
2018-03-23T10:22:54.281Z,9.86
2018-03-23T10:23:59.790Z,9.96
2018-03-23T10:25:05.295Z,10.00
2018-03-23T10:26:10.808Z,10.10
2018-03-23T10:27:16.316Z,10.18
2018-03-23T10:28:21.837Z,10.28
2018-03-23T10:29:27.345Z,10.32
2018-03-23T10:30:32.847Z,10.52
2018-03-23T10:31:38.371Z,10.43
2018-03-23T10:32:43.876Z,10.53
2018-03-23T10:33:49.388Z,10.58
2018-03-23T10:34:54.890Z,10.58
2018-03-23T10:36:00.412Z,10.55
2018-03-23T10:37:05.919Z,10.47
2018-03-23T10:38:11.423Z,10.58
2018-03-23T10:39:16.939Z,10.51
2018-03-23T10:40:22.483Z,10.55
2018-03-23T10:41:27.956Z,10.60
2018-03-23T10:42:33.465Z,10.73
2018-03-23T10:43:38.984Z,10.78
2018-03-23T10:44:44.500Z,10.76
2018-03-23T10:45:50.002Z,10.84
2018-03-23T10:46:55.522Z,10.76
2018-03-23T10:48:01.025Z,10.94
2018-03-23T10:49:06.536Z,10.95
2018-03-23T10:50:12.051Z,10.91
2018-03-23T10:51:17.558Z,10.95
2018-03-23T10:52:23.074Z,10.95
2018-03-23T10:53:28.639Z,10.91
2018-03-23T10:54:34.096Z,10.91
2018-03-23T10:55:39.615Z,11.01
2018-03-23T10:56:45.128Z,11.03
2018-03-23T10:57:50.637Z,11.06
2018-03-23T10:58:56.138Z,10.94
2018-03-23T11:00:01.646Z,10.95
2018-03-23T11:01:07.161Z,11.02
2018-03-23T11:02:12.671Z,10.98
2018-03-23T11:03:18.185Z,11.03
2018-03-23T11:04:23.697Z,10.94
2018-03-23T11:05:29.206Z,11.02
2018-03-23T11:06:34.718Z,10.98
2018-03-23T11:07:40.232Z,10.95
2018-03-23T11:08:45.744Z,10.89
2018-03-23T11:09:51.261Z,11.02
2018-03-23T11:10:56.868Z,11.01
2018-03-23T11:12:02.273Z,10.92
2018-03-23T11:13:07.849Z,10.99
2018-03-23T11:14:13.298Z,11.02
2018-03-23T11:15:18.807Z,10.88
2018-03-23T11:16:24.318Z,10.80
2018-03-23T11:17:29.833Z,10.77
2018-03-23T11:18:35.346Z,10.88
2018-03-23T11:19:40.865Z,10.80
2018-03-23T11:20:46.364Z,10.83
2018-03-23T11:21:51.888Z,10.81
2018-03-23T11:22:57.388Z,10.80
2018-03-23T11:24:02.900Z,10.91
2018-03-23T11:25:08.413Z,10.83
2018-03-23T11:26:13.935Z,10.77
2018-03-23T11:27:19.436Z,10.77
2018-03-23T11:28:24.952Z,10.73
2018-03-23T11:29:30.455Z,10.74
2018-03-23T11:30:35.966Z,10.70
2018-03-23T11:31:41.486Z,10.56
2018-03-23T11:32:47.030Z,10.65
2018-03-23T11:33:52.504Z,10.55
2018-03-23T11:34:58.023Z,10.47
2018-03-23T11:36:03.528Z,10.58
2018-03-23T11:37:09.043Z,10.60
2018-03-23T11:38:14.555Z,10.55
2018-03-23T11:39:20.063Z,10.60
2018-03-23T11:40:25.583Z,10.59
2018-03-23T11:41:31.090Z,10.58
2018-03-23T11:42:36.596Z,10.58
2018-03-23T11:43:42.116Z,10.63
2018-03-23T11:44:47.629Z,10.66
2018-03-23T11:45:53.127Z,10.70
2018-03-23T11:46:58.642Z,10.63
2018-03-23T11:48:04.158Z,10.56
2018-03-23T11:49:09.673Z,10.55
2018-03-23T11:50:15.176Z,10.70
2018-03-23T11:51:20.692Z,10.66
2018-03-23T11:52:26.196Z,10.68
2018-03-23T11:53:31.707Z,10.74
2018-03-23T11:54:37.219Z,10.73
2018-03-23T11:55:42.740Z,10.83
2018-03-23T11:56:48.244Z,10.74
2018-03-23T11:57:53.755Z,10.73
2018-03-23T11:58:59.267Z,10.73
2018-03-23T12:00:04.780Z,10.68
2018-03-23T12:01:10.288Z,10.70
2018-03-23T12:02:15.801Z,10.52
2018-03-23T12:03:21.308Z,10.63
2018-03-23T12:04:26.822Z,10.59
2018-03-23T12:05:32.334Z,10.68
2018-03-23T12:06:37.843Z,10.56
2018-03-23T12:07:43.357Z,10.42
2018-03-23T12:08:48.866Z,10.47
2018-03-23T12:09:54.380Z,10.42
2018-03-23T12:10:59.887Z,10.37
2018-03-23T12:12:05.404Z,10.39
2018-03-23T12:13:10.914Z,10.43
2018-03-23T12:14:16.462Z,10.40
2018-03-23T12:15:21.934Z,10.46
2018-03-23T12:16:27.448Z,10.46
2018-03-23T12:17:32.958Z,10.46
2018-03-23T12:18:38.465Z,10.42
2018-03-23T12:19:43.976Z,10.44
2018-03-23T12:20:49.486Z,10.42
2018-03-23T12:21:55.005Z,10.43
2018-03-23T12:23:00.514Z,10.46
2018-03-23T12:24:06.022Z,10.37
2018-03-23T12:25:11.540Z,10.43
2018-03-23T12:26:17.054Z,10.46
2018-03-23T12:27:22.564Z,10.47
2018-03-23T12:28:28.068Z,10.33
2018-03-23T12:29:33.616Z,10.39
2018-03-23T12:30:39.101Z,10.33
2018-03-23T12:31:44.605Z,10.39
2018-03-23T12:32:50.110Z,10.40
2018-03-23T12:33:55.644Z,10.36
2018-03-23T12:35:01.137Z,10.40
2018-03-23T12:36:06.648Z,10.43
2018-03-23T12:37:12.163Z,10.43
2018-03-23T12:38:17.666Z,10.37
2018-03-23T12:39:23.174Z,10.36
2018-03-23T12:40:28.686Z,10.33
2018-03-23T12:41:34.204Z,10.32
2018-03-23T12:42:39.724Z,10.30
2018-03-23T12:43:45.230Z,10.33
2018-03-23T12:44:50.733Z,10.26
2018-03-23T12:45:56.270Z,10.33
2018-03-23T12:47:01.760Z,10.32
2018-03-23T12:48:07.281Z,10.39
2018-03-23T12:49:12.778Z,10.33
2018-03-23T12:50:18.285Z,10.42
2018-03-23T12:51:23.801Z,10.47
2018-03-23T12:52:29.313Z,10.44
2018-03-23T12:53:34.836Z,10.51
2018-03-23T12:54:40.338Z,10.59
2018-03-23T12:55:45.851Z,10.60
2018-03-23T12:56:51.356Z,10.58
2018-03-23T12:57:56.869Z,10.58
2018-03-23T12:59:02.381Z,10.63
2018-03-23T13:00:07.885Z,10.53
2018-03-23T13:01:13.396Z,10.51
2018-03-23T13:02:18.907Z,10.60
2018-03-23T13:03:24.421Z,10.56
2018-03-23T13:04:29.944Z,10.71
2018-03-23T13:05:35.459Z,10.62
2018-03-23T13:06:40.958Z,10.51
2018-03-23T13:07:46.465Z,10.51
2018-03-23T13:08:51.995Z,10.44
2018-03-23T13:09:57.493Z,10.46
2018-03-23T13:11:03.002Z,10.52
2018-03-23T13:12:08.556Z,10.47
2018-03-23T13:13:14.022Z,10.47
2018-03-23T13:14:19.536Z,10.47
2018-03-23T13:15:25.051Z,10.47
2018-03-23T13:16:30.555Z,10.43
2018-03-23T13:17:36.073Z,10.51
2018-03-23T13:18:41.584Z,10.46
2018-03-23T13:19:47.091Z,10.56
2018-03-23T13:20:52.608Z,10.53
2018-03-23T13:21:58.112Z,10.68
2018-03-23T13:23:03.625Z,10.59
2018-03-23T13:24:09.145Z,10.56
2018-03-23T13:25:14.648Z,10.68
2018-03-23T13:26:20.164Z,10.73
2018-03-23T13:27:25.668Z,10.71
2018-03-23T13:28:31.186Z,10.77
2018-03-23T13:29:36.697Z,10.81
2018-03-23T13:30:42.206Z,10.77
2018-03-23T13:31:47.714Z,10.73
2018-03-23T13:32:53.227Z,10.81
2018-03-23T13:33:58.735Z,10.91
2018-03-23T13:35:04.244Z,10.89
2018-03-23T13:36:09.757Z,10.92
2018-03-23T13:37:15.270Z,10.91
2018-03-23T13:38:20.793Z,10.92
2018-03-23T13:39:26.307Z,10.92
2018-03-23T13:40:31.818Z,10.91
2018-03-23T13:41:37.317Z,10.91
2018-03-23T13:42:42.825Z,10.96
2018-03-23T13:43:48.335Z,10.98
2018-03-23T13:44:53.856Z,10.91
2018-03-23T13:45:59.373Z,10.86
2018-03-23T13:47:04.873Z,10.89
2018-03-23T13:48:10.391Z,10.88
2018-03-23T13:49:16.016Z,10.88
2018-03-23T13:50:21.408Z,10.88
2018-03-23T13:51:26.923Z,10.98
2018-03-23T13:52:32.432Z,11.06
2018-03-23T13:53:37.942Z,11.10
2018-03-23T13:54:43.455Z,11.19
2018-03-23T13:55:48.965Z,11.19
2018-03-23T13:56:54.478Z,11.14
2018-03-23T13:57:59.999Z,11.20
2018-03-23T13:59:05.498Z,11.16
2018-03-23T14:00:11.018Z,11.19
2018-03-23T14:01:16.528Z,11.16
2018-03-23T14:02:22.036Z,11.16
2018-03-23T14:03:27.547Z,11.20
2018-03-23T14:04:33.063Z,11.24
2018-03-23T14:05:38.571Z,11.25
2018-03-23T14:06:44.087Z,11.31
2018-03-23T14:07:49.604Z,11.20
2018-03-23T14:08:55.120Z,11.27
2018-03-23T14:10:00.624Z,11.17
2018-03-23T14:11:06.151Z,11.19
2018-03-23T14:12:11.645Z,11.24
2018-03-23T14:13:17.158Z,11.20
2018-03-23T14:14:22.665Z,11.25
2018-03-23T14:15:28.195Z,11.28
2018-03-23T14:16:33.708Z,11.28
2018-03-23T14:17:39.264Z,11.27
2018-03-23T14:18:44.753Z,11.24
2018-03-23T14:19:50.224Z,11.20
2018-03-23T14:20:55.734Z,11.29
2018-03-23T14:22:01.249Z,11.29
2018-03-23T14:23:06.762Z,11.31
2018-03-23T14:24:12.273Z,11.25